Time;durP1;ratioP1;P1;durP2;ratioP2;P2;SDS_P1;SDS_P2;PMS_P1;PMS_P2;Temp;Humidity;BMP_temperature;BMP_pressure;BME280_temperature;BME280_humidity;BME280_pressure;Samples;Min_cycle;Max_cycle;Signal;HPM_P1;HPM_P2
2022/08/05 00:01:15;;;;;;;5.65;3.28;;;;;;;25.08;44.95;99824.38;5064312;28;20067;-72
2022/08/05 00:03:41;;;;;;;11.48;3.60;;;;;;;25.08;44.22;99821.69;5061988;28;20025;-72
2022/08/05 00:06:07;;;;;;;5.63;2.95;;;;;;;25.01;44.37;99830.00;5078428;28;20040;-72
2022/08/05 00:08:33;;;;;;;9.60;3.58;;;;;;;24.96;44.46;99821.75;5059634;28;20283;-72
2022/08/05 00:11:00;;;;;;;6.53;3.20;;;;;;;24.95;44.94;99822.84;5063372;28;20045;-72
2022/08/05 00:13:26;;;;;;;8.43;3.38;;;;;;;24.88;45.19;99821.41;5059844;28;20381;-72
2022/08/05 00:15:51;;;;;;;6.97;3.88;;;;;;;24.84;45.42;99821.91;5062790;28;20091;-72
2022/08/05 00:18:17;;;;;;;10.98;3.72;;;;;;;24.73;45.98;99816.63;5063501;28;20059;-72
2022/08/05 00:20:42;;;;;;;7.35;3.70;;;;;;;24.83;45.70;99819.44;5063030;28;20020;-72
2022/08/05 00:23:08;;;;;;;11.82;3.40;;;;;;;24.81;45.60;99816.16;5080604;28;20037;-72
2022/08/05 00:25:33;;;;;;;9.02;3.83;;;;;;;24.77;46.11;99821.28;5063150;28;20036;-72
2022/08/05 00:27:59;;;;;;;7.72;4.18;;;;;;;24.62;47.42;99812.97;5061733;28;20020;-72
2022/08/05 00:30:24;;;;;;;6.25;3.60;;;;;;;24.43;48.40;99817.88;5063185;28;20230;-72
2022/08/05 00:32:50;;;;;;;9.27;3.78;;;;;;;24.29;47.51;99813.09;5063571;28;20029;-72
2022/08/05 00:35:16;;;;;;;8.55;3.35;;;;;;;24.38;47.57;99808.88;5062075;28;20331;-72
2022/08/05 00:37:41;;;;;;;5.78;3.92;;;;;;;24.48;47.11;99807.13;5064001;28;20182;-72
2022/08/05 00:40:07;;;;;;;6.57;3.60;;;;;;;24.58;46.93;99808.31;5062294;28;20032;-72
2022/08/05 00:42:35;;;;;;;11.02;4.70;;;;;;;24.54;46.64;99813.41;5059904;28;20035;-72
2022/08/05 00:45:03;;;;;;;9.68;4.80;;;;;;;24.45;46.70;99804.09;5062805;28;20037;-72
2022/08/05 00:47:28;;;;;;;6.70;4.18;;;;;;;24.31;47.10;99806.34;5065073;28;20042;-72
2022/08/05 00:49:54;;;;;;;12.13;4.95;;;;;;;24.34;47.04;99797.72;5062338;28;20028;-72
2022/08/05 00:52:19;;;;;;;10.48;5.07;;;;;;;24.37;47.32;99799.94;5062624;28;20041;-72
2022/08/05 00:54:45;;;;;;;11.35;4.80;;;;;;;24.45;47.47;99804.91;5061275;28;20052;-72
2022/08/05 00:57:11;;;;;;;6.95;4.32;;;;;;;24.44;47.63;99800.56;5062828;28;20041;-72
2022/08/05 00:59:36;;;;;;;10.30;4.47;;;;;;;24.43;48.17;99790.81;5062231;28;20354;-73
2022/08/05 01:02:01;;;;;;;6.75;4.00;;;;;;;24.27;49.22;99793.56;5062745;28;20059;-73
2022/08/05 01:04:27;;;;;;;10.90;4.57;;;;;;;24.11;48.50;99797.94;5063976;28;20039;-72
2022/08/05 01:06:52;;;;;;;11.73;4.15;;;;;;;24.19;47.70;99803.72;5075714;28;20033;-72
2022/08/05 01:09:18;;;;;;;11.38;4.78;;;;;;;24.11;47.46;99790.63;5075412;28;20024;-72
2022/08/05 01:11:47;;;;;;;6.35;3.92;;;;;;;24.13;47.37;99793.91;5064154;28;20037;-72
2022/08/05 01:14:47;;;;;;;9.05;4.47;;;;;;;24.08;47.67;99798.44;5063921;28;20078;-73
2022/08/05 01:17:20;;;;;;;5.15;3.88;;;;;;;24.01;47.79;99793.19;5063531;28;20036;-72
2022/08/05 01:19:48;;;;;;;14.23;4.88;;;;;;;24.19;47.45;99792.09;5061814;28;20032;-72
2022/08/05 01:22:26;;;;;;;14.10;4.30;;;;;;;24.23;47.24;99787.00;5057628;28;20059;-72
2022/08/05 01:25:07;;;;;;;10.40;4.38;;;;;;;24.19;47.40;99798.31;5062793;28;20024;-72
2022/08/05 01:28:00;;;;;;;6.90;4.28;;;;;;;24.19;47.50;99803.72;5061677;28;20033;-72
2022/08/05 01:30:30;;;;;;;8.85;4.60;;;;;;;24.19;47.58;99797.50;5059694;28;20056;-73
2022/08/05 01:32:58;;;;;;;14.07;4.80;;;;;;;23.99;48.09;99797.22;5061977;28;20218;-72
2022/08/05 01:35:30;;;;;;;8.45;4.18;;;;;;;23.78;48.72;99796.06;5062360;28;20079;-72
2022/08/05 01:37:58;;;;;;;10.05;4.53;;;;;;;23.77;48.91;99797.13;5062157;28;20052;-72
2022/08/05 01:40:28;;;;;;;7.93;3.92;;;;;;;23.92;48.61;99796.53;5062266;28;20061;-72
2022/08/05 01:42:57;;;;;;;8.55;4.10;;;;;;;23.98;48.38;99804.50;5059070;28;20041;-72
2022/08/05 01:45:25;;;;;;;7.30;4.63;;;;;;;23.86;48.63;99804.56;5062185;28;20067;-72
2022/08/05 01:47:53;;;;;;;8.48;4.65;;;;;;;23.74;49.02;99800.31;5061151;28;20052;-72
2022/08/05 01:50:28;;;;;;;11.10;4.68;;;;;;;23.68;49.16;99794.03;5073649;28;20032;-72
2022/08/05 01:52:57;;;;;;;5.85;4.18;;;;;;;23.79;49.18;99811.22;5062467;28;20040;-72
2022/08/05 01:55:25;;;;;;;9.50;4.10;;;;;;;23.48;49.48;99797.19;5062831;28;20090;-73
2022/08/05 01:57:53;;;;;;;9.20;4.15;;;;;;;23.66;49.14;99803.44;5060460;28;20020;-72
2022/08/05 02:00:18;;;;;;;8.88;4.00;;;;;;;23.58;48.97;99804.66;5057786;28;20029;-72
2022/08/05 02:03:03;;;;;;;8.65;3.88;;;;;;;23.49;49.14;99812.34;5074672;28;20087;-72
2022/08/05 02:05:33;;;;;;;9.35;4.10;;;;;;;23.44;49.05;99804.13;5062446;28;20029;-72
2022/08/05 02:07:59;;;;;;;6.88;3.67;;;;;;;23.38;49.10;99799.72;5060412;28;20145;-72
2022/08/05 02:10:35;;;;;;;7.22;3.80;;;;;;;23.38;49.08;99805.13;5060970;28;20222;-72
2022/08/05 02:13:07;;;;;;;7.28;3.70;;;;;;;23.22;49.44;99809.44;5061203;28;20032;-72
2022/08/05 02:15:42;;;;;;;6.55;3.80;;;;;;;23.35;49.24;99797.50;5060959;28;20059;-73
2022/08/05 02:18:24;;;;;;;5.05;3.38;;;;;;;23.33;48.95;99805.03;5060971;28;20067;-72
2022/08/05 02:20:56;;;;;;;7.68;4.05;;;;;;;23.09;49.04;99763.00;5060929;28;20350;-72
2022/08/05 02:23:24;;;;;;;9.48;3.90;;;;;;;23.12;49.31;99800.31;5060859;28;20025;-73
2022/08/05 02:25:51;;;;;;;4.55;3.95;;;;;;;23.29;49.03;99803.88;5057561;28;20036;-73
2022/08/05 02:28:24;;;;;;;5.78;3.55;;;;;;;23.20;49.50;99808.84;5062460;28;20532;-73
2022/08/05 02:31:04;;;;;;;7.43;3.93;;;;;;;22.90;50.12;99801.00;5060375;28;20043;-73
2022/08/05 02:33:36;;;;;;;8.45;3.67;;;;;;;22.86;49.91;99790.91;5074659;28;20852;-73
2022/08/05 02:36:03;;;;;;;6.05;3.38;;;;;;;22.96;49.93;99801.09;5053797;28;20406;-73
2022/08/05 02:38:29;;;;;;;5.78;3.80;;;;;;;23.01;49.75;99804.72;5061742;28;20037;-73
2022/08/05 02:40:58;;;;;;;5.53;3.80;;;;;;;22.96;50.04;99804.63;5061396;28;20249;-73
2022/08/05 02:43:25;;;;;;;7.90;3.95;;;;;;;22.88;50.38;99808.50;5067936;28;20048;-73
2022/08/05 02:45:52;;;;;;;8.05;4.18;;;;;;;22.97;50.49;99808.16;5064722;28;20059;-73
2022/08/05 02:48:19;;;;;;;6.65;3.78;;;;;;;22.95;50.40;99799.47;5064817;28;20032;-73
2022/08/05 02:50:49;;;;;;;5.38;3.90;;;;;;;23.15;49.81;99797.97;5061517;28;20037;-73
2022/08/05 02:53:17;;;;;;;5.97;4.03;;;;;;;23.04;50.44;99806.94;5063231;28;20044;-73
2022/08/05 02:55:46;;;;;;;6.25;3.90;;;;;;;22.96;50.41;99806.50;5061677;28;20234;-73
2022/08/05 02:58:15;;;;;;;6.90;3.35;;;;;;;22.67;51.46;99806.44;5061804;28;20082;-73
2022/08/05 03:00:43;;;;;;;6.10;4.03;;;;;;;22.84;50.96;99801.13;5064687;28;20066;-73
2022/08/05 03:03:10;;;;;;;5.05;3.53;;;;;;;22.69;51.52;99796.22;5063692;28;20033;-73
2022/08/05 03:05:38;;;;;;;8.23;4.00;;;;;;;22.86;51.08;99796.31;5061481;28;20037;-73
2022/08/05 03:08:04;;;;;;;10.55;4.25;;;;;;;22.95;50.96;99803.00;5061665;28;20025;-73
2022/08/05 03:10:30;;;;;;;6.72;3.92;;;;;;;22.77;51.13;99805.81;5061446;28;20096;-73
2022/08/05 03:12:55;;;;;;;6.93;3.85;;;;;;;22.84;51.57;99801.94;5061515;28;20325;-74
2022/08/05 03:15:21;;;;;;;6.38;3.83;;;;;;;22.91;51.26;99805.34;5061499;28;20029;-73
2022/08/05 03:17:47;;;;;;;10.25;4.30;;;;;;;22.87;51.82;99814.97;5065076;28;20032;-73
2022/08/05 03:20:12;;;;;;;7.65;3.75;;;;;;;22.86;52.87;99810.63;5064139;28;20230;-73
2022/08/05 03:22:38;;;;;;;9.65;3.65;;;;;;;22.83;53.33;99819.19;5061529;28;20291;-73
2022/08/05 03:25:04;;;;;;;12.55;4.00;;;;;;;22.97;52.91;99813.56;5062295;28;20074;-74
2022/08/05 03:27:31;;;;;;;6.47;4.05;;;;;;;22.96;52.86;99811.91;5065770;28;20039;-73
2022/08/05 03:29:57;;;;;;;12.88;4.63;;;;;;;22.98;52.47;99815.19;5065311;28;20045;-73
2022/08/05 03:32:23;;;;;;;12.40;4.93;;;;;;;22.94;52.48;99812.16;5065564;28;20523;-73
2022/08/05 03:34:49;;;;;;;14.73;4.43;;;;;;;23.03;51.86;99809.88;5064144;28;20048;-73
2022/08/05 03:37:15;;;;;;;7.70;4.32;;;;;;;22.98;51.75;99815.19;5065119;28;20544;-73
2022/08/05 03:40:02;;;;;;;11.48;4.18;;;;;;;22.92;52.17;99811.56;5063777;28;20035;-73
2022/08/05 03:42:28;;;;;;;12.30;4.20;;;;;;;22.84;52.23;99814.63;5064303;28;20238;-73
2022/08/05 03:44:54;;;;;;;10.35;5.10;;;;;;;22.85;51.96;99814.38;5063958;28;20041;-73
2022/08/05 03:47:19;;;;;;;10.85;4.38;;;;;;;22.81;52.10;99818.63;5063251;28;20052;-73
2022/08/05 03:49:45;;;;;;;14.63;4.18;;;;;;;22.73;52.22;99816.28;5064052;28;20040;-68
2022/08/05 03:52:17;;;;;;;16.85;4.20;;;;;;;22.63;52.56;99816.06;5063827;28;20025;-69
2022/08/05 03:55:00;;;;;;;9.20;4.45;;;;;;;22.50;53.04;99808.25;5063443;28;20028;-69
2022/08/05 03:57:28;;;;;;;13.10;3.95;;;;;;;22.54;53.25;99806.72;5065572;28;20093;-68
2022/08/05 04:00:01;;;;;;;11.15;4.07;;;;;;;22.55;52.94;99801.06;5063658;28;20045;-68
2022/08/05 04:02:30;;;;;;;10.70;3.95;;;;;;;22.56;52.88;99804.59;5062832;28;20505;-68
2022/08/05 04:04:58;;;;;;;12.18;4.20;;;;;;;22.43;53.09;99794.88;5063972;28;20032;-68
2022/08/05 04:07:25;;;;;;;6.55;4.03;;;;;;;22.52;52.90;99803.44;5064652;28;20249;-68
2022/08/05 04:09:52;;;;;;;9.15;4.47;;;;;;;22.43;53.38;99813.78;5076711;28;20111;-68
2022/08/05 04:12:18;;;;;;;13.18;4.50;;;;;;;22.65;52.65;99819.34;5062936;28;20067;-69
2022/08/05 04:14:43;;;;;;;14.77;4.50;;;;;;;22.62;52.75;99806.34;5064227;28;20017;-68
2022/08/05 04:17:10;;;;;;;11.70;4.65;;;;;;;22.53;52.92;99808.59;5062472;28;20040;-68
2022/08/05 04:19:43;;;;;;;10.75;5.05;;;;;;;22.62;53.65;99809.03;5059793;28;20064;-68
2022/08/05 04:22:09;;;;;;;10.45;5.35;;;;;;;22.74;53.63;99806.28;5065255;28;20052;-68
2022/08/05 04:24:36;;;;;;;20.35;5.63;;;;;;;22.87;53.89;99804.16;5064082;28;20175;-69
2022/08/05 04:27:01;;;;;;;13.68;5.68;;;;;;;23.06;53.23;99774.28;5061357;28;20029;-68
2022/08/05 04:29:27;;;;;;;11.80;5.95;;;;;;;23.17;53.76;99797.72;5063917;28;20048;-69
2022/08/05 04:31:52;;;;;;;15.60;7.10;;;;;;;23.35;53.39;99808.31;5062566;28;20037;-69
2022/08/05 04:34:18;;;;;;;8.48;4.82;;;;;;;23.42;53.71;99806.25;5064245;28;20041;-69
2022/08/05 04:36:43;;;;;;;8.57;6.40;;;;;;;23.69;53.29;99809.16;5061956;28;20271;-68
2022/08/05 04:39:09;;;;;;;13.15;8.07;;;;;;;23.71;53.26;99807.03;5061851;28;20037;-68
2022/08/05 04:41:34;;;;;;;10.70;6.63;;;;;;;23.77;53.44;99803.34;5063976;28;20328;-68
2022/08/05 04:44:00;;;;;;;8.77;4.60;;;;;;;23.72;53.34;99810.56;5063166;28;20036;-68
2022/08/05 04:46:25;;;;;;;14.55;5.35;;;;;;;23.80;53.21;99812.84;5062106;28;20029;-68
2022/08/05 04:48:50;;;;;;;9.43;5.43;;;;;;;23.76;53.00;99806.31;5062909;28;20021;-68
2022/08/05 04:51:16;;;;;;;11.65;5.22;;;;;;;23.63;54.16;99801.22;5063268;28;20040;-69
2022/08/05 04:53:42;;;;;;;8.23;5.13;;;;;;;23.86;53.17;99798.34;5076584;28;20033;-68
2022/08/05 04:56:08;;;;;;;15.13;5.75;;;;;;;23.68;53.12;99809.41;5082631;28;20049;-68
2022/08/05 04:58:33;;;;;;;18.45;5.38;;;;;;;23.75;52.92;99796.56;5067435;28;20033;-68
2022/08/05 05:00:59;;;;;;;11.52;4.13;;;;;;;23.86;51.30;99790.22;5062169;28;20348;-68
2022/08/05 05:03:24;;;;;;;6.03;3.78;;;;;;;24.12;50.95;99791.44;5062867;28;20028;-68
2022/08/05 05:05:49;;;;;;;10.13;4.55;;;;;;;24.36;50.86;99787.47;5062146;28;20059;-69
2022/08/05 05:08:15;;;;;;;7.35;4.57;;;;;;;24.56;50.13;99795.03;5062466;28;20033;-67
2022/08/05 05:10:44;;;;;;;11.45;4.82;;;;;;;24.39;50.49;99797.81;5059166;28;20040;-68
2022/08/05 05:13:11;;;;;;;8.63;4.63;;;;;;;24.74;50.20;99791.19;5062587;28;20112;-68
2022/08/05 05:15:37;;;;;;;8.00;5.03;;;;;;;25.10;49.19;99792.44;5061598;28;20210;-68
2022/08/05 05:18:02;;;;;;;12.75;4.68;;;;;;;25.45;48.34;99790.06;5062987;28;20028;-68
2022/08/05 05:20:28;;;;;;;6.90;4.82;;;;;;;25.65;47.87;99794.00;5062440;28;20067;-68
2022/08/05 05:22:54;;;;;;;5.50;4.68;;;;;;;25.52;48.13;99789.84;5062288;28;20212;-67
2022/08/05 05:25:19;;;;;;;10.35;6.63;;;;;;;25.52;48.30;99791.72;5061506;28;20238;-67
2022/08/05 05:27:45;;;;;;;11.82;5.20;;;;;;;25.54;47.60;99762.47;5063180;28;20044;-67
2022/08/05 05:30:11;;;;;;;5.95;3.97;;;;;;;25.80;46.56;99783.28;5061724;28;20074;-68
2022/08/05 05:32:37;;;;;;;8.35;4.25;;;;;;;26.02;47.11;99785.91;5060835;28;20044;-69
2022/08/05 05:35:02;;;;;;;11.70;4.93;;;;;;;25.99;47.15;99784.50;5065196;28;20074;-69
2022/08/05 05:37:28;;;;;;;7.90;5.65;;;;;;;26.16;46.64;99784.34;5063102;28;20029;-67
2022/08/05 05:39:53;;;;;;;7.68;4.70;;;;;;;26.34;46.50;99777.69;5061843;28;20044;-69
2022/08/05 05:42:19;;;;;;;10.63;4.60;;;;;;;26.53;46.26;99781.56;5061678;28;20032;-66
2022/08/05 05:44:44;;;;;;;9.40;4.30;;;;;;;26.84;45.49;99787.09;5061351;28;20027;-67
2022/08/05 05:47:10;;;;;;;8.77;4.80;;;;;;;26.82;45.61;99786.56;5056210;28;20090;-67
2022/08/05 05:49:35;;;;;;;4.47;3.63;;;;;;;27.09;44.60;99786.41;5062254;28;20036;-67
2022/08/05 05:52:00;;;;;;;11.88;5.97;;;;;;;27.11;44.62;99786.94;5060791;28;20208;-67
2022/08/05 05:54:26;;;;;;;13.68;4.53;;;;;;;27.24;43.93;99789.97;5060859;28;20103;-67
2022/08/05 05:56:53;;;;;;;8.80;3.85;;;;;;;27.51;42.81;99789.69;5061898;28;20065;-67
2022/08/05 05:59:18;;;;;;;9.88;4.35;;;;;;;27.81;41.95;99783.44;5062187;28;20332;-67
2022/08/05 06:01:44;;;;;;;10.07;3.60;;;;;;;28.02;41.25;99794.28;5060693;28;20048;-69
2022/08/05 06:04:11;;;;;;;4.72;4.20;;;;;;;28.26;40.77;99784.50;5059983;28;20051;-67
2022/08/05 06:06:37;;;;;;;12.25;7.28;;;;;;;28.27;40.10;99780.66;5061419;28;20040;-67
2022/08/05 06:09:04;;;;;;;11.43;5.50;;;;;;;28.28;39.91;99780.41;5061310;28;20278;-67
2022/08/05 06:11:33;;;;;;;9.00;5.82;;;;;;;28.38;39.93;99789.63;5061525;28;20270;-67
2022/08/05 06:13:59;;;;;;;8.80;5.60;;;;;;;28.37;39.52;99782.53;5061825;28;20102;-67
2022/08/05 06:16:25;;;;;;;10.45;4.55;;;;;;;28.32;39.70;99783.38;5060656;28;20338;-67
2022/08/05 06:18:50;;;;;;;4.13;3.72;;;;;;;28.61;39.45;99776.16;5060803;28;20036;-69
2022/08/05 06:21:17;;;;;;;7.70;3.75;;;;;;;28.60;39.01;99773.72;5060451;28;20369;-67
2022/08/05 06:23:42;;;;;;;8.35;3.70;;;;;;;28.91;39.17;99783.38;5058866;28;20017;-67
2022/08/05 06:26:08;;;;;;;10.75;3.63;;;;;;;29.21;39.04;99776.13;5060963;28;20376;-67
2022/08/05 06:28:33;;;;;;;5.55;3.63;;;;;;;29.58;38.10;99766.59;5060117;28;20372;-67
2022/08/05 06:30:59;;;;;;;7.55;4.57;;;;;;;29.37;38.87;99774.91;5062237;28;20354;-67
2022/08/05 06:33:24;;;;;;;7.57;4.80;;;;;;;29.47;38.46;99772.13;5063624;28;20041;-67
2022/08/05 06:35:51;;;;;;;8.93;4.65;;;;;;;29.34;38.85;99771.94;5059610;28;20028;-67
2022/08/05 06:38:16;;;;;;;9.82;4.55;;;;;;;29.09;39.35;99775.66;5060414;28;20052;-67
2022/08/05 06:40:42;;;;;;;6.80;4.15;;;;;;;29.50;38.91;99776.22;5059893;28;20047;-67
2022/08/05 06:43:07;;;;;;;6.13;4.43;;;;;;;29.71;38.37;99771.38;5060168;28;20061;-67
2022/08/05 06:45:34;;;;;;;6.75;3.85;;;;;;;29.99;37.83;99773.28;5061613;28;20112;-67
2022/08/05 06:48:00;;;;;;;6.57;3.58;;;;;;;30.09;37.77;99770.47;5060337;28;20055;-67
2022/08/05 06:50:25;;;;;;;10.82;4.63;;;;;;;29.96;37.43;99764.84;5061176;28;20350;-67
2022/08/05 06:52:52;;;;;;;8.35;4.25;;;;;;;30.40;37.97;99772.88;5061188;28;20028;-67
2022/08/05 06:55:17;;;;;;;5.00;3.58;;;;;;;30.73;36.59;99768.38;5060153;28;20041;-67
2022/08/05 06:57:43;;;;;;;6.15;3.70;;;;;;;30.92;36.62;99776.56;5060653;28;20388;-67
2022/08/05 07:00:09;;;;;;;6.03;4.57;;;;;;;30.93;36.27;99775.47;5059854;28;20094;-67
2022/08/05 07:02:45;;;;;;;10.10;4.28;;;;;;;30.60;37.18;99774.56;5060307;28;20070;-67
2022/08/05 07:05:12;;;;;;;7.03;4.47;;;;;;;30.65;37.32;99775.31;5059195;28;20051;-67
2022/08/05 07:07:38;;;;;;;5.40;3.85;;;;;;;30.86;37.08;99773.09;5056743;28;20793;-68
2022/08/05 07:10:06;;;;;;;5.53;4.30;;;;;;;31.22;36.04;99775.34;5058549;28;20037;-68
2022/08/05 07:17:59;;;;;;;;;;;;;;;31.59;35.75;99763.53;5057098;28;21271;-67
2022/08/05 07:20:25;;;;;;;7.80;4.38;;;;;;;31.44;35.38;99764.59;5057484;28;20087;-66
2022/08/05 07:22:50;;;;;;;6.47;3.70;;;;;;;31.62;35.32;99776.59;5057811;28;20036;-67
2022/08/05 07:25:16;;;;;;;10.65;3.95;;;;;;;31.54;35.08;99766.34;5072440;28;20313;-67
2022/08/05 07:27:41;;;;;;;7.80;3.97;;;;;;;31.81;34.75;99771.91;5058443;28;20310;-67
2022/08/05 07:30:07;;;;;;;6.80;3.83;;;;;;;31.90;34.13;99761.06;5057417;28;20196;-67
2022/08/05 07:32:37;;;;;;;8.98;3.58;;;;;;;32.31;34.25;99755.66;5057689;28;20071;-67
2022/08/05 07:35:13;;;;;;;11.85;4.03;;;;;;;32.27;34.45;99757.38;5057756;28;20033;-67
2022/08/05 07:37:39;;;;;;;6.85;3.45;;;;;;;32.21;34.39;99756.63;5057814;28;20032;-67
2022/08/05 07:40:05;;;;;;;9.43;3.78;;;;;;;32.11;34.51;99761.50;5057833;28;20095;-67
2022/08/05 07:42:31;;;;;;;8.10;4.10;;;;;;;32.10;34.31;99749.72;5057855;28;20067;-67
2022/08/05 07:44:57;;;;;;;9.80;4.43;;;;;;;31.68;34.57;99754.31;5058952;28;20315;-67
2022/08/05 07:47:22;;;;;;;11.93;5.07;;;;;;;32.13;33.78;99753.78;5059016;28;20345;-67
2022/08/05 07:49:51;;;;;;;6.50;3.67;;;;;;;32.56;33.95;99751.56;5056987;28;20040;-67
2022/08/05 07:52:17;;;;;;;6.22;4.30;;;;;;;32.54;32.72;99748.31;5057035;28;20801;-67
2022/08/05 07:54:42;;;;;;;5.53;3.90;;;;;;;32.62;32.72;99748.41;5057923;28;20267;-67
2022/08/05 07:57:08;;;;;;;6.75;3.80;;;;;;;32.72;33.25;99746.56;5058257;28;20033;-68
2022/08/05 07:59:33;;;;;;;9.02;3.80;;;;;;;32.66;33.13;99741.19;5056477;28;20027;-67
2022/08/05 08:02:00;;;;;;;7.97;4.72;;;;;;;32.79;32.55;99745.03;5058340;28;20040;-67
2022/08/05 08:04:25;;;;;;;7.32;4.03;;;;;;;32.88;31.88;99743.19;5071475;28;20323;-67
2022/08/05 08:06:51;;;;;;;13.15;5.13;;;;;;;32.58;33.25;99735.63;5056745;28;20052;-67
2022/08/05 08:09:16;;;;;;;6.07;3.40;;;;;;;32.87;32.43;99738.81;5058875;28;20037;-67
2022/08/05 08:11:42;;;;;;;11.95;3.72;;;;;;;32.97;31.58;99737.78;5056034;28;20045;-67
2022/08/05 08:14:07;;;;;;;14.60;3.95;;;;;;;32.96;31.46;99738.91;5060840;28;20028;-67
2022/08/05 08:16:33;;;;;;;8.02;4.32;;;;;;;33.12;30.99;99737.41;5061374;28;20041;-66
2022/08/05 08:18:58;;;;;;;13.70;4.00;;;;;;;33.16;31.54;99740.34;5060882;28;20025;-67
2022/08/05 08:21:24;;;;;;;4.25;3.33;;;;;;;33.56;30.47;99733.06;5059796;28;20040;-67
2022/08/05 08:23:50;;;;;;;9.02;3.95;;;;;;;33.57;31.00;99727.25;5060282;28;20028;-67
2022/08/05 08:26:15;;;;;;;5.55;3.78;;;;;;;33.72;29.74;99733.47;5060534;28;20078;-67
2022/08/05 08:28:40;;;;;;;5.45;3.78;;;;;;;34.08;29.39;99734.13;5060224;28;20025;-66
2022/08/05 08:31:06;;;;;;;5.35;3.85;;;;;;;34.15;29.15;99731.72;5059953;28;20102;-68
2022/08/05 08:33:32;;;;;;;4.45;3.53;;;;;;;33.78;29.42;99722.03;5062638;28;20029;-68
2022/08/05 08:35:57;;;;;;;7.88;3.55;;;;;;;33.89;29.72;99726.16;5060372;28;20087;-67
2022/08/05 08:38:23;;;;;;;5.60;3.25;;;;;;;34.38;28.73;99713.25;5059563;28;20024;-67
2022/08/05 08:40:48;;;;;;;8.23;3.10;;;;;;;33.93;29.21;99704.34;5061367;28;20075;-67
2022/08/05 08:43:17;;;;;;;6.05;3.28;;;;;;;33.76;28.13;99702.31;5060834;28;21442;-67
2022/08/05 08:45:43;;;;;;;5.40;3.13;;;;;;;34.27;28.82;99714.63;5060093;28;20139;-67
2022/08/05 08:48:11;;;;;;;5.78;3.30;;;;;;;33.93;29.16;99709.84;5060776;28;20349;-67
2022/08/05 08:50:42;;;;;;;5.43;3.80;;;;;;;33.98;29.50;99706.94;5060549;28;20063;-67
2022/08/05 08:53:09;;;;;;;4.93;3.17;;;;;;;34.20;29.23;99701.34;5059392;28;20263;-67
2022/08/05 08:55:35;;;;;;;4.30;3.03;;;;;;;34.01;29.49;99697.25;5059442;28;20033;-67
2022/08/05 08:58:01;;;;;;;6.00;3.30;;;;;;;33.93;28.68;99687.88;5060765;28;20028;-67
2022/08/05 09:00:27;;;;;;;11.23;3.92;;;;;;;34.40;27.88;99683.50;5059939;28;20025;-67
2022/08/05 09:02:53;;;;;;;6.05;2.67;;;;;;;34.64;27.84;99684.97;5060639;28;20048;-67
2022/08/05 09:05:19;;;;;;;5.72;2.72;;;;;;;34.69;26.79;99688.38;5059402;28;20257;-67
2022/08/05 09:07:45;;;;;;;4.97;2.30;;;;;;;34.82;26.13;99679.19;5059005;28;20033;-67
2022/08/05 09:10:11;;;;;;;3.25;2.92;;;;;;;34.79;26.41;99673.50;5060057;28;20117;-67
2022/08/05 09:12:37;;;;;;;4.32;2.55;;;;;;;34.72;26.06;99678.66;5060255;28;20073;-67
2022/08/05 09:15:04;;;;;;;2.38;2.13;;;;;;;34.95;25.49;99662.81;5060844;28;20017;-67
2022/08/05 09:17:30;;;;;;;5.40;2.13;;;;;;;35.02;25.44;99668.63;5061835;28;20353;-67
2022/08/05 09:19:56;;;;;;;5.22;2.58;;;;;;;34.68;24.64;99655.69;5062073;28;20221;-68
2022/08/05 09:22:21;;;;;;;9.20;2.55;;;;;;;34.71;25.56;99666.06;5062142;28;20086;-67
2022/08/05 09:25:00;;;;;;;5.72;2.40;;;;;;;34.69;25.29;99657.31;5061368;28;20033;-67
2022/08/05 09:27:39;;;;;;;2.80;2.40;;;;;;;34.87;25.13;99659.75;5061160;28;20322;-67
2022/08/05 09:30:05;;;;;;;6.03;3.05;;;;;;;34.78;24.80;99656.19;5061038;28;20045;-68
2022/08/05 09:32:38;;;;;;;7.78;2.80;;;;;;;34.60;25.10;99649.06;5061567;28;20036;-67
2022/08/05 09:35:11;;;;;;;6.13;2.50;;;;;;;34.67;25.85;99641.13;5061485;28;20033;-68
2022/08/05 09:37:47;;;;;;;5.57;2.90;;;;;;;34.56;25.60;99635.16;5061856;28;20230;-68
2022/08/05 09:40:31;;;;;;;4.45;2.58;;;;;;;34.49;25.75;99647.78;5061043;28;20107;-67
2022/08/05 09:42:57;;;;;;;4.07;2.75;;;;;;;34.47;25.95;99633.53;5061312;28;20124;-67
2022/08/05 09:45:37;;;;;;;8.98;4.05;;;;;;;34.41;26.30;99637.59;5076707;28;20052;-67
2022/08/05 09:48:24;;;;;;;3.63;2.72;;;;;;;34.32;25.38;99634.81;5059935;28;20075;-67
2022/08/05 09:50:52;;;;;;;4.43;2.85;;;;;;;34.30;26.46;99631.53;5051280;28;20067;-67
2022/08/05 09:53:18;;;;;;;2.78;2.58;;;;;;;34.06;27.88;99640.22;5061158;28;20039;-67
2022/08/05 09:55:44;;;;;;;4.80;2.45;;;;;;;34.07;27.22;99627.31;5060981;28;20021;-67
2022/08/05 09:58:11;;;;;;;11.18;2.80;;;;;;;34.29;26.48;99629.91;5061188;28;20063;-67
2022/08/05 10:00:37;;;;;;;3.67;2.55;;;;;;;34.21;25.63;99628.78;5061001;28;20033;-67
2022/08/05 10:03:09;;;;;;;3.13;2.65;;;;;;;34.01;25.71;99614.84;5060719;28;20052;-67
2022/08/05 10:05:35;;;;;;;4.90;2.67;;;;;;;33.93;27.81;99617.25;5061120;28;20041;-67
2022/08/05 10:08:05;;;;;;;2.90;2.30;;;;;;;33.80;27.51;99618.16;5060856;28;20051;-67
2022/08/05 10:10:44;;;;;;;3.50;2.45;;;;;;;33.87;27.02;99617.72;5059287;28;20039;-67
2022/08/05 10:13:10;;;;;;;3.17;2.80;;;;;;;33.97;27.36;99613.88;5056222;28;20155;-67
2022/08/05 10:15:38;;;;;;;3.10;2.42;;;;;;;34.04;25.96;99614.22;5059729;28;20247;-67
2022/08/05 10:18:15;;;;;;;2.70;2.40;;;;;;;33.99;27.17;99615.16;5058389;28;20037;-68
2022/08/05 10:20:50;;;;;;;5.22;2.33;;;;;;;33.98;26.23;99608.06;5057614;28;20033;-68
2022/08/05 10:23:34;;;;;;;6.53;2.58;;;;;;;34.25;25.61;99612.44;5059392;28;20036;-68
2022/08/05 10:26:04;;;;;;;;;;;;;;;34.52;25.66;99600.38;5059509;28;20103;-68
2022/08/05 10:28:29;;;;;;;4.18;2.92;;;;;;;34.16;26.47;99601.47;5057888;28;19958;-67
2022/08/05 10:30:57;;;;;;;5.35;2.58;;;;;;;33.93;26.83;99583.50;5059575;28;20315;-67
2022/08/05 10:33:25;;;;;;;8.45;2.78;;;;;;;33.98;26.89;99593.50;5057769;28;20522;-68
2022/08/05 10:35:52;;;;;;;5.63;3.00;;;;;;;33.89;27.86;99597.06;5071182;28;20025;-67
2022/08/05 10:38:19;;;;;;;8.80;2.63;;;;;;;34.04;27.00;99589.47;5060360;28;20028;-68
2022/08/05 10:40:48;;;;;;;3.20;2.40;;;;;;;34.18;26.59;99584.66;5058192;28;20029;-67
2022/08/05 10:43:40;;;;;;;5.38;2.65;;;;;;;34.22;27.78;99585.63;5057610;28;20033;-67
2022/08/05 10:46:08;;;;;;;8.77;4.93;;;;;;;34.15;26.81;99574.31;5058480;28;20041;-67
2022/08/05 10:48:41;;;;;;;9.55;3.15;;;;;;;34.05;25.93;99582.84;5058029;28;20060;-67
2022/08/05 10:51:12;;;;;;;7.35;2.65;;;;;;;33.85;26.56;99574.09;5057407;28;20098;-67
2022/08/05 10:53:40;;;;;;;3.08;2.60;;;;;;;33.67;26.82;99574.34;5058351;28;20025;-67
2022/08/05 10:56:08;;;;;;;8.65;4.22;;;;;;;33.63;26.55;99574.19;5058388;28;20041;-67
2022/08/05 10:58:45;;;;;;;10.38;3.33;;;;;;;33.64;26.70;99571.13;5058151;28;20028;-67
2022/08/05 11:01:11;;;;;;;14.85;6.60;;;;;;;33.71;26.74;99564.34;5058005;28;20385;-67
2022/08/05 11:04:02;;;;;;;8.50;4.53;;;;;;;33.95;27.64;99562.81;5058727;28;20027;-67
2022/08/05 11:06:28;;;;;;;4.13;2.50;;;;;;;34.06;25.79;99560.56;5058595;28;20096;-67
2022/08/05 11:09:39;;;;;;;3.42;2.65;;;;;;;34.01;26.66;99563.47;5057271;28;20047;-67
2022/08/05 11:12:25;;;;;;;4.90;2.83;;;;;;;33.96;26.54;99555.38;4993191;28;20074;-67
2022/08/05 11:15:21;;;;;;;3.50;2.67;;;;;;;33.85;25.76;99554.88;5056989;28;20254;-68
2022/08/05 11:17:51;;;;;;;7.80;2.63;;;;;;;33.86;25.45;99555.69;5051334;28;20235;-67
2022/08/05 11:20:43;;;;;;;5.75;2.70;;;;;;;33.91;25.58;99556.34;5058733;28;20076;-67
2022/08/05 11:23:33;;;;;;;5.65;2.70;;;;;;;34.02;25.45;99548.59;5072363;28;20037;-67
2022/08/05 11:26:05;;;;;;;7.53;2.75;;;;;;;34.05;26.67;99544.41;5057475;28;20090;-67
2022/08/05 11:28:33;;;;;;;4.57;2.80;;;;;;;34.21;26.36;99540.84;5069193;28;20403;-67
2022/08/05 11:31:00;;;;;;;4.05;2.60;;;;;;;34.26;25.26;99542.63;5055513;28;20049;-68
2022/08/05 11:33:27;;;;;;;8.70;2.80;;;;;;;34.31;26.36;99544.41;5056392;28;20104;-67
2022/08/05 11:35:56;;;;;;;4.65;2.42;;;;;;;34.21;25.77;99538.09;5057271;28;20369;-67
2022/08/05 11:38:41;;;;;;;3.67;2.35;;;;;;;34.21;26.57;99531.78;5056045;28;20244;-67
2022/08/05 11:41:07;;;;;;;3.97;2.50;;;;;;;34.35;26.24;99537.19;5043994;28;20060;-67
2022/08/05 11:43:32;;;;;;;4.85;2.50;;;;;;;34.31;26.24;99534.22;5055081;28;20013;-68